Time;durP1;ratioP1;P1;durP2;ratioP2;P2;SDS_P1;SDS_P2;PMS_P1;PMS_P2;Temp;Humidity;BMP_temperature;BMP_pressure;BME280_temperature;BME280_humidity;BME280_pressure;Samples;Min_cycle;Max_cycle;Signal;HPM_P1;HPM_P2
2022/01/18 00:01:27;;;;;;;31.10;4.72;;;6.40;99.90;;;;;;5066370;28;20021;-74
2022/01/18 00:03:53;;;;;;;29.73;4.13;;;6.40;99.90;;;;;;5062853;28;20045;-73
2022/01/18 00:06:19;;;;;;;36.55;5.68;;;6.40;99.90;;;;;;5058146;28;20382;-72
2022/01/18 00:08:45;;;;;;;32.55;5.25;;;6.40;99.90;;;;;;5061561;28;20099;-75
2022/01/18 00:11:11;;;;;;;31.65;5.20;;;6.40;99.90;;;;;;5065870;28;20143;-75
2022/01/18 00:18:34;;;;;;;29.83;4.85;;;6.40;99.90;;;;;;5056200;28;20040;-75
2022/01/18 00:23:27;;;;;;;32.75;6.95;;;6.40;99.90;;;;;;5064072;28;20028;-75
2022/01/18 00:25:56;;;;;;;35.58;4.78;;;6.30;99.90;;;;;;5049460;28;20032;-74
2022/01/18 00:28:24;;;;;;;33.88;5.28;;;6.30;99.90;;;;;;5052068;28;20044;-73
2022/01/18 00:33:22;;;;;;;34.60;4.88;;;6.30;99.90;;;;;;5064016;28;20489;-73
2022/01/18 00:35:57;;;;;;;33.63;5.40;;;6.30;99.90;;;;;;5069970;28;20029;-74
2022/01/18 00:40:55;;;;;;;26.00;3.95;;;6.30;99.90;;;;;;5056321;28;20082;-75
2022/01/18 00:43:21;;;;;;;28.70;5.03;;;6.30;99.90;;;;;;5046584;28;20063;-74
2022/01/18 00:45:47;;;;;;;29.65;5.25;;;6.30;99.90;;;;;;5056721;28;20478;-74
2022/01/18 00:48:13;;;;;;;31.90;4.40;;;6.30;99.90;;;;;;5062234;28;20470;-73
2022/01/18 00:50:39;;;;;;;31.08;5.05;;;6.30;99.90;;;;;;5062088;28;20387;-73
2022/01/18 00:53:10;;;;;;;25.20;4.18;;;6.30;99.90;;;;;;5059784;28;20067;-73
2022/01/18 00:55:47;;;;;;;29.33;4.80;;;6.20;99.90;;;;;;5063232;28;20457;-75
2022/01/18 00:58:13;;;;;;;33.95;4.63;;;6.30;99.90;;;;;;5060796;28;20033;-74
2022/01/18 01:00:40;;;;;;;28.60;4.32;;;6.30;99.90;;;;;;5067388;28;20029;-72
2022/01/18 01:03:05;;;;;;;31.25;4.35;;;6.20;99.90;;;;;;5059448;28;20484;-73
2022/01/18 01:05:31;;;;;;;30.98;4.75;;;6.20;99.90;;;;;;5054402;28;20033;-73
2022/01/18 01:07:57;;;;;;;30.65;6.20;;;6.30;99.90;;;;;;5054463;28;20033;-74
2022/01/18 01:10:23;;;;;;;24.23;3.53;;;6.30;99.90;;;;;;5053797;28;20155;-74
2022/01/18 01:12:48;;;;;;;33.10;4.45;;;6.30;99.90;;;;;;5057444;28;20032;-74
2022/01/18 01:15:16;;;;;;;44.03;4.25;;;6.30;99.90;;;;;;5057288;28;20044;-72
2022/01/18 01:17:49;;;;;;;29.10;4.25;;;6.30;99.90;;;;;;5068844;28;20534;-72
2022/01/18 01:42:26;;;;;;;30.23;4.10;;;6.20;99.90;;;;;;5062240;28;20035;-74
2022/01/18 01:44:52;;;;;;;32.35;3.92;;;6.20;99.90;;;;;;5035850;28;20490;-72
2022/01/18 01:47:20;;;;;;;31.38;5.15;;;6.20;99.90;;;;;;5059086;28;20048;-72
2022/01/18 01:49:49;;;;;;;36.55;5.20;;;6.10;99.90;;;;;;5066442;28;20021;-74
2022/01/18 01:52:16;;;;;;;38.53;4.93;;;6.10;99.90;;;;;;5053958;28;20024;-74
2022/01/18 01:54:42;;;;;;;29.42;3.80;;;6.10;99.90;;;;;;5056305;28;20135;-74
2022/01/18 01:57:09;;;;;;;28.67;4.63;;;6.10;99.90;;;;;;5063781;28;20025;-74
2022/01/18 01:59:35;;;;;;;27.67;3.78;;;6.10;99.90;;;;;;5046425;28;20371;-73
2022/01/18 02:02:01;;;;;;;31.77;3.70;;;6.10;99.90;;;;;;5060207;28;20040;-74
2022/01/18 02:04:27;;;;;;;28.55;4.30;;;6.10;99.90;;;;;;5052860;28;20057;-74
2022/01/18 02:06:52;;;;;;;35.47;4.07;;;6.00;99.90;;;;;;5059510;28;20474;-73
2022/01/18 02:09:18;;;;;;;32.05;4.40;;;6.00;99.90;;;;;;5061030;28;20112;-73
2022/01/18 02:11:44;;;;;;;31.55;4.78;;;6.10;99.90;;;;;;5065038;28;20409;-73
2022/01/18 02:14:15;;;;;;;24.90;4.05;;;6.10;99.90;;;;;;5037227;28;20037;-72
2022/01/18 02:22:11;;;;;;;29.27;4.40;;;5.90;99.90;;;;;;5054883;28;20051;-74
2022/01/18 02:24:36;;;;;;;28.98;4.60;;;6.00;99.90;;;;;;5034985;28;20029;-73
2022/01/18 02:27:02;;;;;;;22.80;3.72;;;5.90;99.90;;;;;;5061167;28;20040;-73
2022/01/18 02:29:28;;;;;;;27.80;5.95;;;5.90;99.90;;;;;;5066533;28;20496;-74
2022/01/18 02:31:55;;;;;;;28.55;5.38;;;5.80;99.90;;;;;;5069610;28;20133;-73
2022/01/18 02:34:21;;;;;;;29.15;4.35;;;5.80;99.90;;;;;;5055793;28;20123;-74
2022/01/18 02:36:47;;;;;;;36.08;4.20;;;5.80;99.90;;;;;;5058735;28;20033;-75
2022/01/18 02:39:19;;;;;;;29.90;4.25;;;5.80;99.90;;;;;;5057781;28;20032;-74
2022/01/18 02:41:51;;;;;;;;;;;5.80;99.90;;;;;;5056814;28;20040;-74
2022/01/18 02:44:16;;;;;;;23.65;4.22;;;5.70;99.90;;;;;;5057927;28;20362;-74
2022/01/18 02:46:44;;;;;;;24.35;4.88;;;5.70;99.90;;;;;;5055536;28;20090;-74
2022/01/18 02:49:10;;;;;;;35.83;6.43;;;5.70;99.90;;;;;;5056244;28;20043;-73
2022/01/18 02:51:37;;;;;;;24.02;4.47;;;5.70;99.90;;;;;;5059352;28;20024;-73
2022/01/18 02:54:08;;;;;;;29.80;4.97;;;5.70;99.90;;;;;;5052512;28;20028;-72
2022/01/18 02:56:43;;;;;;;33.67;4.50;;;5.70;99.90;;;;;;5067910;28;20481;-73
2022/01/18 03:00:13;;;;;;;35.42;5.03;;;5.60;99.90;;;;;;5070970;28;20024;-73
2022/01/18 03:04:46;;;;;;;28.52;4.82;;;5.60;99.90;;;;;;5056816;28;20484;-73
2022/01/18 03:07:12;;;;;;;28.73;4.32;;;5.60;99.90;;;;;;5033995;28;20043;-74
2022/01/18 03:09:38;;;;;;;26.13;4.43;;;5.60;99.90;;;;;;5053108;28;20060;-72
2022/01/18 03:12:05;;;;;;;24.75;4.07;;;5.60;99.90;;;;;;5055813;28;20023;-73
2022/01/18 03:14:31;;;;;;;21.55;4.78;;;5.60;99.90;;;;;;5052864;28;20087;-74
2022/01/18 03:16:57;;;;;;;29.05;5.07;;;5.60;99.90;;;;;;5059523;28;20052;-73
2022/01/18 03:19:22;;;;;;;31.73;4.40;;;5.60;99.90;;;;;;5062085;28;20029;-73
2022/01/18 03:21:50;;;;;;;33.22;5.30;;;5.60;99.90;;;;;;5053815;28;20091;-73
2022/01/18 03:29:28;;;;;;;27.92;5.28;;;5.60;99.90;;;;;;5057372;28;20098;-73
2022/01/18 03:31:54;;;;;;;29.50;6.13;;;5.60;99.90;;;;;;5055816;28;20029;-73
2022/01/18 03:34:20;;;;;;;29.05;4.65;;;5.60;99.90;;;;;;5056376;28;20029;-73
2022/01/18 03:36:46;;;;;;;29.23;5.13;;;5.60;99.90;;;;;;5055847;28;20056;-73
2022/01/18 03:39:12;;;;;;;27.58;5.20;;;5.60;99.90;;;;;;5038096;28;20025;-73
2022/01/18 03:41:38;;;;;;;27.95;5.43;;;5.60;99.90;;;;;;5057629;28;20037;-73
2022/01/18 03:44:04;;;;;;;30.35;4.82;;;5.60;99.90;;;;;;5062303;28;20056;-73
2022/01/18 03:46:31;;;;;;;33.60;5.82;;;5.60;99.90;;;;;;5060510;28;20033;-73
2022/01/18 03:48:58;;;;;;;30.25;5.97;;;5.60;99.90;;;;;;5057065;28;20029;-74
2022/01/18 03:51:24;;;;;;;27.50;4.68;;;5.60;99.90;;;;;;5059169;28;20463;-72
2022/01/18 03:53:51;;;;;;;35.20;7.13;;;5.60;99.90;;;;;;5056047;28;20085;-73
2022/01/18 03:56:17;;;;;;;31.35;4.90;;;5.60;99.90;;;;;;5056755;28;20485;-73
2022/01/18 03:58:43;;;;;;;32.78;5.38;;;5.60;99.90;;;;;;5058868;28;20029;-72
2022/01/18 04:01:08;;;;;;;29.98;4.85;;;5.50;99.90;;;;;;5062641;28;20024;-75
2022/01/18 04:03:34;;;;;;;25.88;4.68;;;5.60;99.90;;;;;;5075647;28;20034;-75
2022/01/18 04:06:00;;;;;;;22.27;4.97;;;5.60;99.90;;;;;;5072702;28;20029;-73
2022/01/18 04:08:25;;;;;;;29.95;5.20;;;5.50;99.90;;;;;;5057636;28;20036;-73
2022/01/18 04:10:51;;;;;;;26.45;4.55;;;5.50;99.90;;;;;;5066720;28;20039;-72
2022/01/18 04:13:17;;;;;;;26.67;5.22;;;5.50;99.90;;;;;;5070129;28;20033;-74
2022/01/18 04:15:42;;;;;;;36.28;6.47;;;5.50;99.90;;;;;;5063761;28;20039;-74
2022/01/18 04:18:35;;;;;;;29.70;5.57;;;5.50;99.90;;;;;;5058996;28;20021;-73
2022/01/18 04:28:58;;;;;;;28.48;5.32;;;5.40;99.90;;;;;;5055385;28;20067;-73
2022/01/18 04:31:26;;;;;;;24.20;5.55;;;5.40;99.90;;;;;;5063020;28;20043;-74
2022/01/18 04:33:52;;;;;;;28.80;5.57;;;5.40;99.90;;;;;;5074719;28;20044;-73
2022/01/18 04:36:19;;;;;;;25.42;6.57;;;5.30;99.90;;;;;;5074782;28;20029;-72
2022/01/18 04:38:44;;;;;;;32.55;8.32;;;5.30;99.90;;;;;;5075006;28;20104;-74
2022/01/18 04:41:14;;;;;;;36.03;6.63;;;5.30;99.90;;;;;;5070208;28;20100;-73
2022/01/18 04:48:50;;;;;;;24.77;5.97;;;5.40;99.90;;;;;;5059198;28;20055;-73
2022/01/18 04:51:16;;;;;;;23.15;5.45;;;5.40;99.90;;;;;;5065232;28;20021;-73
2022/01/18 04:53:49;;;;;;;29.38;6.03;;;5.50;99.90;;;;;;5061372;28;20246;-73
2022/01/18 04:56:18;;;;;;;43.05;6.53;;;5.40;99.90;;;;;;5053059;28;20421;-73
2022/01/18 04:58:43;;;;;;;38.55;7.25;;;5.40;99.90;;;;;;5036062;28;20476;-73
2022/01/18 05:01:10;;;;;;;48.15;7.70;;;5.40;99.90;;;;;;5069294;28;20107;-73
2022/01/18 05:03:36;;;;;;;37.35;7.25;;;5.30;99.90;;;;;;5064832;28;20524;-73
2022/01/18 05:06:08;;;;;;;36.83;6.13;;;5.30;99.90;;;;;;5068710;28;20037;-73
2022/01/18 05:08:38;;;;;;;37.40;6.78;;;5.30;99.90;;;;;;5071160;28;20040;-74
2022/01/18 05:11:04;;;;;;;28.88;6.15;;;5.30;99.90;;;;;;5050136;28;20029;-73
2022/01/18 05:16:21;;;;;;;26.30;5.20;;;5.30;99.90;;;;;;5055826;28;20072;-74
2022/01/18 05:23:58;;;;;;;33.80;4.90;;;5.10;99.90;;;;;;5069748;28;20102;-74
2022/01/18 05:26:25;;;;;;;27.77;4.90;;;5.00;99.90;;;;;;5055409;28;20025;-74
2022/01/18 05:28:50;;;;;;;36.00;5.65;;;5.00;99.90;;;;;;5056885;28;20450;-73
2022/01/18 05:31:16;;;;;;;41.70;5.57;;;5.00;99.90;;;;;;5060195;28;20052;-73
2022/01/18 05:33:42;;;;;;;42.22;5.50;;;5.00;99.90;;;;;;5067884;28;20025;-73
2022/01/18 05:36:10;;;;;;;34.63;5.32;;;5.00;99.90;;;;;;5057278;28;20082;-73
2022/01/18 05:38:36;;;;;;;39.22;5.88;;;5.00;99.90;;;;;;5068166;28;20051;-73
2022/01/18 05:41:04;;;;;;;32.03;4.68;;;5.00;99.90;;;;;;5062959;28;20033;-73
2022/01/18 05:43:29;;;;;;;21.90;4.65;;;4.90;99.90;;;;;;5069153;28;20111;-73
2022/01/18 05:45:55;;;;;;;23.42;5.35;;;4.90;99.90;;;;;;5066775;28;20127;-73
2022/01/18 05:48:20;;;;;;;26.17;6.20;;;4.90;99.90;;;;;;5069386;28;20059;-72
2022/01/18 05:50:46;;;;;;;36.50;6.70;;;4.80;99.90;;;;;;5055558;28;20365;-74
2022/01/18 05:53:12;;;;;;;27.48;5.97;;;4.80;99.90;;;;;;5060661;28;20021;-72
2022/01/18 05:55:37;;;;;;;31.77;6.13;;;4.80;99.90;;;;;;5059108;28;20029;-73
2022/01/18 05:58:03;;;;;;;38.70;7.03;;;4.70;99.90;;;;;;5070001;28;20036;-73
2022/01/18 06:00:30;;;;;;;32.13;6.80;;;4.70;99.90;;;;;;5045989;28;20075;-72
2022/01/18 06:08:07;;;;;;;37.95;6.63;;;4.60;99.90;;;;;;5057757;28;20128;-73
2022/01/18 06:10:33;;;;;;;46.78;6.93;;;4.60;99.90;;;;;;5064139;28;20133;-72
2022/01/18 06:13:02;;;;;;;55.38;8.57;;;4.50;99.90;;;;;;5054972;28;20398;-73
2022/01/18 06:15:28;;;;;;;42.88;7.78;;;4.50;99.90;;;;;;5065898;28;20029;-72
2022/01/18 06:17:54;;;;;;;59.08;7.90;;;4.50;99.90;;;;;;5056937;28;20458;-73
2022/01/18 06:20:19;;;;;;;69.53;8.63;;;4.50;99.90;;;;;;5068484;28;20112;-72
2022/01/18 06:22:45;;;;;;;62.40;7.97;;;4.50;99.90;;;;;;5036914;28;20474;-72
2022/01/18 06:25:11;;;;;;;61.50;7.50;;;4.50;99.90;;;;;;5061562;28;20037;-73
2022/01/18 06:27:37;;;;;;;51.45;6.28;;;4.60;99.90;;;;;;5066535;28;20040;-73
2022/01/18 06:30:05;;;;;;;45.45;7.10;;;4.60;99.90;;;;;;5054940;28;20084;-73
2022/01/18 06:32:31;;;;;;;50.15;7.45;;;4.60;99.90;;;;;;5057148;28;20069;-73
2022/01/18 06:34:56;;;;;;;40.70;7.32;;;4.60;99.90;;;;;;5051972;28;20099;-74
2022/01/18 06:37:22;;;;;;;71.20;8.10;;;4.60;99.90;;;;;;5058893;28;20032;-73
2022/01/18 06:39:47;;;;;;;66.80;8.35;;;4.60;99.90;;;;;;5055652;28;20029;-74
2022/01/18 06:42:14;;;;;;;56.33;6.30;;;4.70;99.90;;;;;;5069379;28;20112;-73
2022/01/18 06:44:40;;;;;;;56.53;8.18;;;4.70;99.90;;;;;;5058799;28;20055;-73
2022/01/18 06:47:06;;;;;;;62.65;7.32;;;4.70;99.90;;;;;;5058668;28;20083;-74
2022/01/18 06:49:32;;;;;;;105.93;11.85;;;4.70;99.90;;;;;;5065092;28;20032;-74
2022/01/18 06:51:57;;;;;;;131.27;12.80;;;4.70;99.90;;;;;;5057581;28;20446;-73
2022/01/18 06:54:23;;;;;;;102.72;10.30;;;4.70;99.90;;;;;;5065848;28;20493;-75
2022/01/18 06:56:50;;;;;;;122.35;11.25;;;4.70;99.90;;;;;;5054000;28;20037;-73
2022/01/18 06:59:18;;;;;;;172.80;14.02;;;4.80;99.90;;;;;;5034067;28;20363;-73
2022/01/18 07:01:44;;;;;;;100.13;12.40;;;4.80;99.90;;;;;;5063419;28;20058;-73
2022/01/18 07:04:10;;;;;;;111.13;11.25;;;4.90;99.90;;;;;;5044880;28;20488;-73
2022/01/18 07:06:35;;;;;;;95.00;8.93;;;4.80;99.90;;;;;;5057349;28;20078;-74
2022/01/18 07:09:03;;;;;;;121.30;11.18;;;4.90;99.90;;;;;;5063301;28;20029;-74
2022/01/18 07:11:28;;;;;;;51.45;6.22;;;4.90;99.90;;;;;;5065171;28;20064;-73
2022/01/18 07:13:54;;;;;;;67.78;6.55;;;4.90;99.90;;;;;;5055762;28;20064;-73
2022/01/18 07:16:19;;;;;;;55.13;6.13;;;4.90;99.90;;;;;;5068579;28;20532;-73
2022/01/18 07:18:45;;;;;;;41.05;5.20;;;4.90;99.90;;;;;;5058809;28;20412;-73
2022/01/18 07:21:11;;;;;;;74.93;8.23;;;4.80;99.90;;;;;;5062119;28;20032;-73
2022/01/18 07:23:37;;;;;;;96.43;9.05;;;4.80;99.90;;;;;;5066138;28;20036;-74
2022/01/18 07:26:04;;;;;;;85.50;9.27;;;4.80;99.90;;;;;;5059422;28;20090;-73
2022/01/18 07:28:30;;;;;;;131.70;11.43;;;4.90;99.90;;;;;;5054575;28;20040;-73
2022/01/18 07:30:55;;;;;;;99.93;10.90;;;4.90;99.90;;;;;;5051708;28;20041;-73
2022/01/18 07:33:21;;;;;;;79.82;10.15;;;4.90;99.90;;;;;;5064229;28;20367;-73
2022/01/18 07:35:47;;;;;;;53.55;9.30;;;5.00;99.90;;;;;;5057146;28;20051;-73
2022/01/18 07:38:16;;;;;;;40.58;7.93;;;5.00;99.90;;;;;;5068376;28;20082;-74
2022/01/18 07:40:44;;;;;;;90.65;10.35;;;5.00;99.90;;;;;;5040429;28;20367;-73
2022/01/18 07:43:11;;;;;;;47.45;7.43;;;5.00;99.90;;;;;;5061792;28;20040;-73
2022/01/18 07:45:37;;;;;;;27.50;6.05;;;4.90;99.90;;;;;;5065881;28;20549;-73
2022/01/18 07:48:02;;;;;;;107.53;11.02;;;4.80;99.90;;;;;;5055192;28;20059;-73
2022/01/18 07:50:28;;;;;;;80.93;9.65;;;4.80;99.90;;;;;;5049439;28;20033;-73
2022/01/18 07:52:54;;;;;;;32.80;6.50;;;4.80;99.90;;;;;;5059795;28;20092;-74
2022/01/18 07:55:19;;;;;;;44.05;7.45;;;4.80;99.90;;;;;;5060452;28;20100;-73
2022/01/18 07:57:45;;;;;;;27.10;6.82;;;4.80;99.90;;;;;;5066539;28;20458;-74
2022/01/18 08:00:14;;;;;;;37.00;6.93;;;4.80;99.90;;;;;;5054213;28;20021;-73
2022/01/18 08:02:41;;;;;;;43.30;6.72;;;4.80;99.90;;;;;;5071847;28;20067;-73
2022/01/18 08:05:08;;;;;;;32.20;5.50;;;4.80;99.90;;;;;;5062241;28;20028;-74
2022/01/18 08:07:34;;;;;;;66.93;8.38;;;4.80;99.90;;;;;;5065384;28;20374;-73
2022/01/18 08:09:59;;;;;;;66.05;8.98;;;4.90;99.90;;;;;;5055266;28;20070;-72
2022/01/18 08:12:25;;;;;;;41.30;6.70;;;4.90;99.90;;;;;;5068179;28;20035;-74
2022/01/18 08:14:54;;;;;;;55.08;7.43;;;4.90;99.90;;;;;;5056060;28;20351;-73
2022/01/18 08:17:22;;;;;;;70.30;9.48;;;5.00;99.90;;;;;;5063334;28;20024;-73
2022/01/18 08:19:48;;;;;;;33.30;6.15;;;5.00;99.90;;;;;;5058998;28;20111;-73
2022/01/18 08:22:14;;;;;;;35.00;5.63;;;5.10;99.90;;;;;;5072118;28;20116;-73
2022/01/18 08:24:41;;;;;;;134.90;15.75;;;5.20;99.90;;;;;;5061259;28;20021;-74
2022/01/18 08:27:07;;;;;;;147.88;14.30;;;5.10;99.90;;;;;;5063352;28;20049;-73
2022/01/18 08:29:37;;;;;;;29.95;4.60;;;5.00;99.90;;;;;;5068558;28;20028;-74
2022/01/18 08:32:06;;;;;;;439.88;52.97;;;4.90;99.90;;;;;;5033487;28;20079;-77
2022/01/18 08:34:33;;;;;;;27.98;5.45;;;4.90;99.90;;;;;;5055340;28;20043;-76
2022/01/18 08:36:59;;;;;;;28.25;7.28;;;4.90;99.90;;;;;;5063872;28;20103;-73
2022/01/18 08:39:24;;;;;;;33.05;6.03;;;4.80;99.90;;;;;;5063084;28;20104;-75
2022/01/18 08:41:50;;;;;;;36.80;6.28;;;4.90;99.90;;;;;;5057906;28;20120;-74
2022/01/18 08:44:16;;;;;;;166.15;21.08;;;4.90;99.90;;;;;;5071236;28;20103;-73
2022/01/18 08:46:42;;;;;;;25.08;6.10;;;4.90;99.90;;;;;;5060944;28;20021;-74
2022/01/18 08:49:08;;;;;;;498.60;53.50;;;5.00;99.90;;;;;;5066968;28;20048;-73
2022/01/18 08:51:35;;;;;;;49.13;8.23;;;5.00;99.90;;;;;;5061170;28;20025;-72
2022/01/18 08:54:02;;;;;;;20.25;3.40;;;5.00;99.90;;;;;;5071139;28;20039;-75
2022/01/18 08:56:29;;;;;;;21.60;6.28;;;5.00;99.90;;;;;;5054057;28;20060;-76
2022/01/18 08:58:55;;;;;;;30.20;4.65;;;5.00;99.90;;;;;;5062764;28;20021;-73
2022/01/18 09:01:21;;;;;;;142.18;13.40;;;4.90;99.90;;;;;;5062893;28;20101;-75
2022/01/18 09:03:47;;;;;;;117.97;13.48;;;4.90;99.90;;;;;;5069612;28;20447;-74
2022/01/18 09:06:14;;;;;;;20.98;2.90;;;4.90;99.90;;;;;;5058089;28;20025;-74
2022/01/18 09:08:41;;;;;;;35.33;5.03;;;4.90;99.90;;;;;;5068309;28;20040;-74
2022/01/18 09:11:12;;;;;;;20.05;3.50;;;4.80;99.90;;;;;;5063965;28;20029;-77
2022/01/18 09:13:39;;;;;;;14.95;3.30;;;4.80;99.90;;;;;;5055001;28;20040;-73
2022/01/18 09:16:10;;;;;;;17.42;2.83;;;4.60;99.90;;;;;;5056635;28;20367;-73
2022/01/18 09:18:36;;;;;;;34.97;5.55;;;4.50;99.90;;;;;;5062090;28;20055;-73
2022/01/18 09:21:02;;;;;;;141.40;13.73;;;4.40;99.90;;;;;;5045354;28;20063;-76
2022/01/18 09:23:28;;;;;;;19.02;3.25;;;4.40;99.90;;;;;;5063121;28;20040;-75
2022/01/18 09:25:54;;;;;;;16.85;3.55;;;4.40;99.90;;;;;;5060686;28;20032;-74
2022/01/18 09:28:19;;;;;;;18.13;3.33;;;4.40;99.90;;;;;;5062633;28;20040;-72
2022/01/18 09:30:46;;;;;;;34.15;5.40;;;4.50;99.90;;;;;;5062129;28;20442;-73
2022/01/18 09:33:12;;;;;;;21.38;3.42;;;4.50;99.90;;;;;;5063884;28;20028;-72
2022/01/18 09:35:38;;;;;;;26.13;3.65;;;4.50;99.90;;;;;;5063246;28;20544;-74
2022/01/18 09:38:05;;;;;;;19.58;3.78;;;4.50;99.90;;;;;;5057820;28;20120;-73
2022/01/18 09:40:33;;;;;;;17.70;3.78;;;4.60;99.90;;;;;;5059471;28;20505;-74
2022/01/18 09:43:00;;;;;;;64.18;7.65;;;4.50;99.90;;;;;;5045825;28;20690;-71
2022/01/18 09:45:28;;;;;;;16.25;3.83;;;4.50;99.90;;;;;;5060788;28;20051;-75
2022/01/18 09:47:55;;;;;;;37.80;5.65;;;4.60;99.90;;;;;;5062700;28;20486;-74
2022/01/18 09:50:29;;;;;;;139.75;13.52;;;4.70;99.90;;;;;;5062844;28;20078;-73
2022/01/18 09:52:55;;;;;;;29.17;4.38;;;4.70;99.90;;;;;;5061750;28;20032;-74
2022/01/18 09:55:24;;;;;;;5.57;2.70;;;4.70;99.90;;;;;;5062232;28;20124;-75
2022/01/18 09:57:50;;;;;;;19.90;3.95;;;4.70;99.90;;;;;;5059100;28;20040;-74
2022/01/18 10:00:17;;;;;;;21.20;4.05;;;4.60;99.90;;;;;;5060376;28;20021;-72
2022/01/18 10:02:43;;;;;;;20.77;4.10;;;4.60;99.90;;;;;;5041342;28;20029;-73
2022/01/18 10:05:48;;;;;;;24.42;4.80;;;4.70;99.90;;;;;;5060533;28;20034;-75
2022/01/18 10:08:16;;;;;;;23.05;5.15;;;4.70;99.90;;;;;;5019912;28;20105;-72
2022/01/18 10:10:51;;;;;;;22.25;3.65;;;4.80;99.90;;;;;;5065873;28;20024;-74
2022/01/18 10:13:29;;;;;;;17.73;3.55;;;4.80;99.90;;;;;;5058284;28;20028;-75
2022/01/18 10:16:16;;;;;;;25.42;4.38;;;4.80;99.90;;;;;;5056496;28;20028;-72
2022/01/18 10:18:46;;;;;;;51.10;6.57;;;4.80;99.90;;;;;;5073099;28;20017;-74
2022/01/18 10:21:35;;;;;;;40.15;6.25;;;4.80;99.90;;;;;;5073221;28;20028;-72
2022/01/18 10:24:16;;;;;;;35.50;6.18;;;4.90;99.90;;;;;;5072928;28;20392;-75
2022/01/18 10:26:46;;;;;;;32.55;5.35;;;4.90;99.90;;;;;;5064149;28;20028;-72
2022/01/18 10:29:13;;;;;;;27.65;6.25;;;5.10;99.90;;;;;;5055679;28;20051;-73
2022/01/18 10:34:26;;;;;;;44.67;8.35;;;5.20;99.90;;;;;;5053089;28;20029;-73
2022/01/18 10:37:02;;;;;;;47.58;7.18;;;5.30;99.90;;;;;;5054014;28;20021;-75
2022/01/18 10:39:33;;;;;;;30.25;6.13;;;5.40;99.90;;;;;;5052970;28;20024;-72
2022/01/18 10:42:00;;;;;;;63.90;8.93;;;5.50;99.90;;;;;;5053085;28;20021;-73
2022/01/18 10:44:25;;;;;;;41.25;7.35;;;5.60;99.90;;;;;;5052552;28;20049;-75
2022/01/18 10:46:56;;;;;;;52.33;9.88;;;5.60;99.90;;;;;;5052614;28;20083;-74
2022/01/18 10:49:32;;;;;;;80.93;10.95;;;5.70;99.90;;;;;;5037334;28;20027;-72
2022/01/18 10:52:12;;;;;;;56.33;7.68;;;5.80;99.90;;;;;;5072492;28;20537;-72
2022/01/18 10:54:49;;;;;;;76.38;9.30;;;5.80;99.90;;;;;;5072457;28;20020;-75
2022/01/18 10:57:27;;;;;;;64.25;8.98;;;5.80;99.90;;;;;;5069311;28;20403;-74
2022/01/18 11:00:06;;;;;;;54.88;8.85;;;5.90;99.90;;;;;;5064016;28;20039;-75
2022/01/18 11:02:33;;;;;;;42.95;8.80;;;6.00;99.90;;;;;;5053076;28;20428;-72
2022/01/18 11:05:00;;;;;;;35.42;9.15;;;6.10;99.90;;;;;;5058948;28;20118;-72
2022/01/18 11:07:27;;;;;;;41.92;9.27;;;6.40;99.90;;;;;;5072428;28;20135;-73
2022/01/18 11:10:00;;;;;;;45.42;8.60;;;6.50;99.90;;;;;;5054412;28;20760;-73
2022/01/18 11:12:29;;;;;;;38.78;8.68;;;6.70;99.90;;;;;;5072314;28;20032;-74
2022/01/18 11:15:05;;;;;;;46.08;9.52;;;6.80;99.90;;;;;;5060869;28;20506;-73
2022/01/18 11:17:39;;;;;;;32.88;9.00;;;6.90;99.90;;;;;;5052090;28;20115;-72
2022/01/18 11:20:06;;;;;;;28.30;8.30;;;7.00;99.90;;;;;;5037071;28;20033;-73
2022/01/18 11:22:32;;;;;;;31.55;8.60;;;6.90;99.90;;;;;;5053850;28;20043;-72
2022/01/18 11:24:59;;;;;;;25.58;9.27;;;7.00;99.90;;;;;;5071961;28;20028;-75
2022/01/18 11:27:29;;;;;;;37.22;9.15;;;7.10;99.90;;;;;;5069328;28;20090;-74
2022/01/18 11:29:55;;;;;;;27.80;8.98;;;7.20;99.90;;;;;;5051319;28;20055;-73
2022/01/18 11:32:26;;;;;;;33.67;7.75;;;7.20;99.90;;;;;;5053388;28;20033;-71
2022/01/18 11:35:10;;;;;;;31.30;7.93;;;7.20;99.90;;;;;;5054324;28;20025;-74
2022/01/18 11:37:45;;;;;;;40.35;8.43;;;7.10;99.90;;;;;;5069629;28;20044;-74
2022/01/18 11:40:14;;;;;;;45.85;11.43;;;7.00;99.90;;;;;;5033738;28;20382;-74
2022/01/18 11:42:54;;;;;;;32.08;9.07;;;6.90;99.90;;;;;;5053524;28;20079;-73
2022/01/18 11:45:26;;;;;;;42.58;10.85;;;6.90;99.90;;;;;;5063028;28;20083;-71
2022/01/18 11:48:05;;;;;;;39.42;11.07;;;6.90;99.90;;;;;;5051727;28;20056;-71
2022/01/18 11:50:37;;;;;;;42.55;12.23;;;6.90;99.90;;;;;;5071814;28;20432;-73
2022/01/18 11:53:54;;;;;;;146.18;18.85;;;6.90;99.90;;;;;;5070461;28;20078;-74
2022/01/18 11:56:36;;;;;;;44.70;11.02;;;7.00;99.90;;;;;;5045468;28;20056;-71
2022/01/18 11:59:15;;;;;;;49.22;14.27;;;7.00;99.90;;;;;;5064560;28;20036;-73
2022/01/18 12:01:57;;;;;;;40.38;11.70;;;7.10;99.90;;;;;;5067548;28;20489;-71
2022/01/18 12:04:38;;;;;;;38.28;12.13;;;7.10;99.90;;;;;;5067496;28;20048;-74
2022/01/18 12:07:04;;;;;;;47.65;13.63;;;7.20;99.90;;;;;;5075652;28;20035;-73
2022/01/18 12:09:43;;;;;;;41.58;13.85;;;7.20;99.90;;;;;;5074772;28;20036;-73
2022/01/18 12:12:40;;;;;;;47.97;12.50;;;7.30;99.90;;;;;;5075252;28;20108;-73
2022/01/18 12:15:24;;;;;;;41.88;13.13;;;7.50;99.90;;;;;;5055373;28;20043;-74
2022/01/18 12:17:58;;;;;;;49.08;14.93;;;7.50;99.90;;;;;;5056480;28;20032;-74
2022/01/18 12:20:37;;;;;;;42.72;14.30;;;7.60;99.90;;;;;;5037188;28;20033;-74
2022/01/18 12:23:02;;;;;;;46.83;14.18;;;7.70;99.90;;;;;;5063388;28;20025;-72
2022/01/18 12:25:31;;;;;;;59.50;15.32;;;7.70;99.90;;;;;;5075350;28;20031;-74
2022/01/18 12:28:02;;;;;;;41.95;14.52;;;7.70;99.90;;;;;;5060321;28;20037;-71
2022/01/18 12:30:42;;;;;;;46.25;11.80;;;7.70;99.90;;;;;;5055778;28;20021;-72
2022/01/18 12:33:21;;;;;;;44.85;14.20;;;7.60;99.90;;;;;;5062816;28;20021;-72
2022/01/18 12:35:47;;;;;;;50.40;15.88;;;7.60;99.90;;;;;;5065732;28;20561;-73
2022/01/18 12:38:22;;;;;;;48.20;15.20;;;7.50;99.90;;;;;;5036141;28;20441;-73
2022/01/18 12:40:47;;;;;;;51.83;15.05;;;7.60;99.90;;;;;;5054493;28;20378;-73
2022/01/18 12:45:42;;;;;;;28.33;8.93;;;7.50;99.90;;;;;;5065114;28;20057;-72
2022/01/18 12:48:10;;;;;;;54.70;14.45;;;7.40;99.90;;;;;;5054210;28;20029;-72
2022/01/18 12:50:48;;;;;;;101.72;18.50;;;7.30;99.90;;;;;;5058827;28;20086;-72
2022/01/18 12:53:20;;;;;;;58.85;13.45;;;7.40;99.90;;;;;;5059538;28;20391;-74
2022/01/18 12:55:57;;;;;;;52.63;13.75;;;7.50;99.90;;;;;;5042133;28;20449;-74
2022/01/18 12:58:31;;;;;;;144.40;22.92;;;7.50;99.90;;;;;;5075039;28;20064;-72
2022/01/18 13:00:58;;;;;;;54.03;14.15;;;7.40;99.90;;;;;;5067796;28;20025;-73
2022/01/18 13:03:32;;;;;;;252.88;34.08;;;7.30;99.90;;;;;;5054765;28;20029;-74
2022/01/18 13:05:59;;;;;;;60.60;14.77;;;7.40;99.90;;;;;;5034127;28;20029;-71
2022/01/18 13:08:37;;;;;;;67.22;14.43;;;7.40;99.90;;;;;;5070214;28;20044;-73
2022/01/18 13:11:03;;;;;;;75.45;14.88;;;7.40;99.90;;;;;;5073987;28;20107;-72
2022/01/18 13:13:31;;;;;;;91.20;18.75;;;7.30;99.90;;;;;;5074681;28;20459;-73
2022/01/18 13:26:47;;;;;;;49.65;13.82;;;7.40;99.90;;;;;;5054508;28;20043;-73
2022/01/18 13:29:13;;;;;;;70.82;18.60;;;7.60;99.90;;;;;;5054314;28;20052;-73
2022/01/18 13:31:41;;;;;;;67.13;13.73;;;7.60;99.90;;;;;;5065324;28;20181;-71
2022/01/18 13:34:11;;;;;;;83.10;16.10;;;7.70;99.90;;;;;;5056118;28;20025;-74
2022/01/18 13:36:48;;;;;;;65.80;16.73;;;7.60;99.90;;;;;;5066378;28;20029;-73
2022/01/18 13:39:27;;;;;;;56.30;13.10;;;7.70;99.90;;;;;;5054013;28;20052;-74
2022/01/18 13:41:54;;;;;;;54.95;15.60;;;7.70;99.90;;;;;;5060234;28;20071;-72
2022/01/18 13:44:20;;;;;;;54.97;12.88;;;7.70;99.90;;;;;;5058678;28;20040;-72
2022/01/18 13:46:46;;;;;;;48.80;14.88;;;7.60;99.90;;;;;;5055824;28;20031;-74
2022/01/18 13:49:13;;;;;;;39.38;11.35;;;7.50;99.90;;;;;;5062646;28;20036;-74
2022/01/18 13:51:39;;;;;;;44.92;13.43;;;7.50;99.90;;;;;;5053888;28;20032;-71
2022/01/18 13:54:08;;;;;;;52.65;14.60;;;7.50;99.90;;;;;;5071712;28;20465;-72
2022/01/18 13:56:45;;;;;;;57.05;16.10;;;7.40;99.90;;;;;;5073892;28;20027;-72
2022/01/18 13:59:11;;;;;;;60.90;16.75;;;7.30;99.90;;;;;;5073470;28;20316;-72
2022/01/18 14:01:38;;;;;;;67.45;17.85;;;7.40;99.90;;;;;;5060741;28;20374;-71
2022/01/18 14:04:16;;;;;;;63.65;16.98;;;7.50;99.90;;;;;;5053584;28;20033;-73
2022/01/18 14:06:43;;;;;;;68.53;20.98;;;7.50;99.90;;;;;;5053222;28;20025;-71
2022/01/18 14:09:10;;;;;;;52.42;14.02;;;7.50;99.90;;;;;;5053598;28;20525;-74
2022/01/18 14:11:37;;;;;;;74.82;18.65;;;7.60;99.90;;;;;;5061801;28;20031;-71
2022/01/18 14:14:22;;;;;;;70.32;19.27;;;7.60;99.90;;;;;;5073464;28;20028;-71
2022/01/18 14:17:01;;;;;;;63.33;17.60;;;7.70;99.90;;;;;;5052345;28;20505;-73
2022/01/18 14:19:33;;;;;;;80.60;19.63;;;7.60;99.90;;;;;;5036808;28;20083;-72
2022/01/18 14:22:23;;;;;;;56.15;14.57;;;7.60;99.90;;;;;;5073322;28;20024;-72